createdAt,value
2022-11-23T00:02:27.737Z,1.80
2022-11-23T00:05:31.213Z,1.95
2022-11-23T00:08:33.871Z,1.25
2022-11-23T00:11:38.048Z,1.80
2022-11-23T00:14:40.822Z,1.30
2022-11-23T00:17:43.412Z,1.40
2022-11-23T00:20:46.068Z,1.63
2022-11-23T00:23:48.954Z,1.40
2022-11-23T00:26:52.977Z,1.50
2022-11-23T00:29:55.626Z,1.30
2022-11-23T00:32:58.241Z,1.97
2022-11-23T00:36:01.656Z,1.03
2022-11-23T00:39:04.727Z,1.50
2022-11-23T00:42:08.680Z,1.70
2022-11-23T00:45:11.787Z,1.50
2022-11-23T00:48:14.367Z,1.73
2022-11-23T00:51:18.566Z,1.17
2022-11-23T00:54:21.232Z,1.30
2022-11-23T00:57:25.466Z,1.30
2022-11-23T01:00:28.740Z,1.17
2022-11-23T01:03:32.052Z,1.00
2022-11-23T01:06:36.480Z,1.20
2022-11-23T01:09:39.080Z,1.00
2022-11-23T01:12:43.016Z,0.90
2022-11-23T01:15:50.380Z,1.20
2022-11-23T01:18:54.410Z,1.27
2022-11-23T01:21:57.111Z,1.40
2022-11-23T01:24:59.793Z,1.27
2022-11-23T01:28:03.883Z,1.03
2022-11-23T01:31:07.601Z,1.30
2022-11-23T01:37:14.159Z,1.88
2022-11-23T01:40:17.435Z,2.13
2022-11-23T01:43:21.430Z,1.20
2022-11-23T01:46:24.012Z,1.10
2022-11-23T01:49:27.447Z,1.40
2022-11-23T01:52:30.042Z,1.05
2022-11-23T01:55:32.659Z,0.90
2022-11-23T01:58:39.747Z,1.00
2022-11-23T02:01:42.480Z,1.30
2022-11-23T02:04:48.283Z,1.47
2022-11-23T02:07:51.323Z,1.70
2022-11-23T02:10:54.337Z,1.52
2022-11-23T02:13:58.249Z,1.88
2022-11-23T02:17:00.903Z,1.70
2022-11-23T02:20:07.560Z,2.17
2022-11-23T02:23:17.698Z,2.03
2022-11-23T02:26:23.345Z,1.53
2022-11-23T02:29:26.712Z,2.23
2022-11-23T02:32:30.061Z,1.90
2022-11-23T02:35:32.666Z,1.90
2022-11-23T02:38:35.268Z,1.20
2022-11-23T02:41:41.916Z,1.40
2022-11-23T02:44:49.699Z,1.40
2022-11-23T02:47:52.328Z,1.70
2022-11-23T02:50:54.975Z,2.03
2022-11-23T02:53:57.587Z,1.60
2022-11-23T02:57:01.689Z,1.83
2022-11-23T03:00:05.512Z,1.70
2022-11-23T03:06:11.135Z,1.70
2022-11-23T03:09:13.749Z,2.03
2022-11-23T03:12:17.698Z,2.27
2022-11-23T03:15:20.323Z,1.83
2022-11-23T03:18:22.868Z,1.57
2022-11-23T03:21:25.474Z,2.07
2022-11-23T03:24:28.030Z,1.50
2022-11-23T03:27:33.620Z,1.60
2022-11-23T03:30:36.171Z,2.10
2022-11-23T03:33:38.757Z,2.10
2022-11-23T03:36:41.371Z,2.13
2022-11-23T03:39:47.497Z,2.03
2022-11-23T03:42:51.977Z,1.40
2022-11-23T03:45:54.590Z,2.00
2022-11-23T03:48:57.403Z,1.43
2022-11-23T03:51:59.982Z,1.60
2022-11-23T03:58:30.502Z,1.43
2022-11-23T04:04:35.920Z,1.30
2022-11-23T04:07:38.573Z,2.13
2022-11-23T04:10:41.201Z,1.43
2022-11-23T04:13:45.117Z,1.90
2022-11-23T04:19:50.095Z,1.37
2022-11-23T04:22:52.760Z,1.70
2022-11-23T04:25:55.462Z,1.50
2022-11-23T04:28:59.450Z,1.70
2022-11-23T04:32:02.056Z,1.73
2022-11-23T04:35:05.240Z,1.57
2022-11-23T04:38:07.840Z,1.63
2022-11-23T04:41:11.037Z,1.53
2022-11-23T04:44:14.988Z,1.65
2022-11-23T04:47:17.527Z,1.60
2022-11-23T04:50:20.263Z,1.77
2022-11-23T04:53:22.869Z,1.60
2022-11-23T04:56:25.439Z,1.70
2022-11-23T04:59:29.594Z,1.80
2022-11-23T05:02:32.557Z,1.47
2022-11-23T05:05:35.332Z,1.30
2022-11-23T05:08:38.293Z,1.87
2022-11-23T05:11:41.043Z,1.65
2022-11-23T05:14:44.968Z,1.50
2022-11-23T05:20:50.502Z,1.43
2022-11-23T05:23:53.359Z,1.88
2022-11-23T05:26:56.560Z,1.53
2022-11-23T05:30:00.548Z,1.52
2022-11-23T05:33:04.264Z,1.70
2022-11-23T05:36:07.553Z,1.85
2022-11-23T05:39:10.130Z,1.40
2022-11-23T05:42:12.717Z,1.30
2022-11-23T05:45:16.739Z,1.53
2022-11-23T05:48:19.784Z,1.30
2022-11-23T05:51:22.386Z,1.92
2022-11-23T05:54:24.970Z,1.60
2022-11-23T05:57:27.636Z,1.50
2022-11-23T06:00:31.599Z,1.47
2022-11-23T06:03:34.257Z,1.60
2022-11-23T06:06:36.951Z,1.80
2022-11-23T06:09:39.844Z,1.70
2022-11-23T06:12:42.493Z,1.60
2022-11-23T06:15:46.569Z,1.70
2022-11-23T06:18:49.288Z,2.90
2022-11-23T06:21:51.972Z,1.70
2022-11-23T06:24:54.571Z,2.10
2022-11-23T06:27:57.690Z,1.77
2022-11-23T06:31:04.752Z,1.70
2022-11-23T06:34:07.377Z,1.80
2022-11-23T06:37:10.137Z,1.73
2022-11-23T06:40:13.449Z,2.33
2022-11-23T06:43:16.107Z,1.98
2022-11-23T06:46:20.412Z,1.33
2022-11-23T06:49:23.297Z,1.50
2022-11-23T06:52:26.012Z,1.47
2022-11-23T06:55:28.760Z,2.00
2022-11-23T06:58:31.372Z,1.77
2022-11-23T07:01:35.408Z,1.67
2022-11-23T07:04:38.047Z,1.90
2022-11-23T07:07:40.832Z,2.00
2022-11-23T07:10:43.612Z,1.40
2022-11-23T07:13:46.366Z,4.20
2022-11-23T07:16:50.500Z,2.53
2022-11-23T07:19:53.274Z,2.10
2022-11-23T07:23:01.296Z,2.07
2022-11-23T07:26:04.049Z,2.10
2022-11-23T07:29:06.624Z,2.03
2022-11-23T07:32:10.821Z,2.37
2022-11-23T07:35:13.519Z,1.37
2022-11-23T07:38:16.305Z,1.20
2022-11-23T07:41:18.997Z,1.10
2022-11-23T07:44:21.741Z,1.30
2022-11-23T07:47:26.233Z,1.03
2022-11-23T07:50:29.417Z,1.67
2022-11-23T07:53:31.992Z,1.83
2022-11-23T07:56:34.715Z,1.30
2022-11-23T07:59:37.590Z,1.53
2022-11-23T08:02:57.755Z,1.97
2022-11-23T08:06:04.483Z,1.88
2022-11-23T08:09:07.161Z,2.60
2022-11-23T08:12:09.781Z,2.03
2022-11-23T08:15:12.702Z,1.67
2022-11-23T08:18:16.752Z,2.22
2022-11-23T08:21:19.462Z,2.20
2022-11-23T08:24:22.438Z,1.43
2022-11-23T08:27:25.138Z,1.92
2022-11-23T08:30:28.948Z,2.57
2022-11-23T08:36:35.395Z,2.20
2022-11-23T08:39:38.164Z,3.03
2022-11-23T08:42:40.852Z,2.77
2022-11-23T08:45:43.522Z,2.20
2022-11-23T08:48:47.577Z,2.00
2022-11-23T08:51:50.539Z,3.37
2022-11-23T08:54:53.253Z,3.80
2022-11-23T08:57:56.826Z,2.47
2022-11-23T09:00:59.518Z,2.42
2022-11-23T09:04:04.605Z,2.20
2022-11-23T09:07:07.664Z,2.87
2022-11-23T09:10:15.045Z,2.35
2022-11-23T09:13:20.778Z,2.63
2022-11-23T09:16:23.453Z,2.70
2022-11-23T09:19:27.483Z,3.20
2022-11-23T09:22:30.181Z,2.53
2022-11-23T09:25:32.811Z,2.40
2022-11-23T09:28:38.048Z,2.10
2022-11-23T09:31:43.019Z,2.43
2022-11-23T09:34:47.120Z,2.30
2022-11-23T09:37:50.004Z,2.00
2022-11-23T09:40:57.839Z,2.13
2022-11-23T09:44:03.934Z,2.47
2022-11-23T09:47:15.599Z,2.00
2022-11-23T09:50:25.824Z,1.53
2022-11-23T09:53:31.656Z,1.80
2022-11-23T09:56:36.578Z,1.93
2022-11-23T09:59:42.238Z,1.50
2022-11-23T10:02:45.170Z,1.73
2022-11-23T10:05:59.085Z,2.05
2022-11-23T10:09:18.192Z,1.30
2022-11-23T10:12:40.486Z,1.53
2022-11-23T10:15:52.554Z,1.27
2022-11-23T10:19:00.300Z,1.50
2022-11-23T10:22:11.528Z,1.20
2022-11-23T10:25:17.833Z,1.37
2022-11-23T10:28:22.711Z,1.43
2022-11-23T10:31:25.958Z,0.90
2022-11-23T10:34:43.696Z,1.08
2022-11-23T10:37:47.690Z,1.57
2022-11-23T10:40:58.675Z,1.37
2022-11-23T10:44:06.733Z,1.33
2022-11-23T10:47:09.530Z,2.00
2022-11-23T10:50:27.244Z,1.20
2022-11-23T10:53:33.881Z,1.23
2022-11-23T10:56:36.749Z,1.50
2022-11-23T10:59:40.121Z,1.30
2022-11-23T11:02:45.213Z,1.27
2022-11-23T11:06:08.701Z,1.87
2022-11-23T11:12:22.059Z,1.20
2022-11-23T11:15:25.040Z,1.40
2022-11-23T11:18:30.255Z,1.33
2022-11-23T11:21:34.951Z,1.63
2022-11-23T11:24:44.041Z,1.43
2022-11-23T11:27:52.811Z,1.43
2022-11-23T11:31:10.189Z,1.20
2022-11-23T11:34:19.422Z,1.47
2022-11-23T11:37:31.929Z,1.60
2022-11-23T11:40:39.068Z,1.13
2022-11-23T11:43:44.521Z,1.50
2022-11-23T11:46:48.990Z,1.53
2022-11-23T11:49:55.176Z,1.30
2022-11-23T11:53:02.977Z,1.10
2022-11-23T11:56:13.218Z,1.53
2022-11-23T11:59:19.356Z,2.13
2022-11-23T12:02:25.610Z,1.30
2022-11-23T12:05:31.601Z,1.00
2022-11-23T12:08:42.014Z,1.40
2022-11-23T12:11:46.096Z,1.20
2022-11-23T12:14:48.881Z,1.10
2022-11-23T12:18:16.211Z,0.75
2022-11-23T12:21:36.406Z,1.00
2022-11-23T12:24:49.769Z,1.83
2022-11-23T12:28:00.856Z,1.05
2022-11-23T12:31:09.425Z,0.73
2022-11-23T12:34:31.614Z,1.17
2022-11-23T12:37:41.368Z,0.80
2022-11-23T12:40:53.368Z,1.20
2022-11-23T12:44:14.427Z,0.80
2022-11-23T12:47:27.348Z,0.60
2022-11-23T12:50:35.347Z,0.50
2022-11-23T12:53:45.223Z,0.90
2022-11-23T12:57:05.660Z,0.97
2022-11-23T13:00:16.965Z,0.70
2022-11-23T13:03:42.801Z,0.50
2022-11-23T13:07:28.475Z,0.50
2022-11-23T13:10:28.776Z,0.50
2022-11-23T13:13:43.133Z,1.00
2022-11-23T13:17:04.837Z,0.70
2022-11-23T13:20:27.770Z,0.50
2022-11-23T13:23:36.177Z,0.83
2022-11-23T13:26:38.972Z,0.67
2022-11-23T13:29:52.312Z,0.63
2022-11-23T13:32:58.905Z,0.88
2022-11-23T13:36:07.643Z,0.80
2022-11-23T13:40:00.792Z,0.70
2022-11-23T13:43:06.049Z,2.13
2022-11-23T13:46:15.232Z,0.87
2022-11-23T13:49:33.233Z,0.70
2022-11-23T13:52:36.919Z,1.43
2022-11-23T13:55:39.759Z,0.50
2022-11-23T13:58:51.807Z,0.60
2022-11-23T14:02:28.276Z,0.80
2022-11-23T14:05:56.966Z,0.60
2022-11-23T14:09:03.573Z,0.53
2022-11-23T14:12:13.673Z,0.47
2022-11-23T14:15:18.397Z,0.83
2022-11-23T14:18:39.809Z,0.80
2022-11-23T14:21:49.269Z,0.50
2022-11-23T14:25:03.017Z,1.03
2022-11-23T14:31:18.084Z,1.00
2022-11-23T14:34:26.703Z,0.73
2022-11-23T14:37:37.844Z,0.50
2022-11-23T14:40:49.563Z,1.10
2022-11-23T14:43:52.454Z,0.70
2022-11-23T14:47:01.912Z,1.00
2022-11-23T14:50:04.959Z,0.80
2022-11-23T14:53:12.007Z,0.60
2022-11-23T14:56:24.124Z,1.10
2022-11-23T14:59:28.414Z,0.90
2022-11-23T15:02:34.888Z,1.17
2022-11-23T15:05:38.760Z,0.80
2022-11-23T15:08:47.110Z,0.70
2022-11-23T15:11:50.445Z,0.90
2022-11-23T15:14:54.093Z,0.60
2022-11-23T15:21:01.903Z,2.33
2022-11-23T15:24:06.196Z,2.47
2022-11-23T15:27:17.770Z,0.90
2022-11-23T15:30:21.586Z,0.90
2022-11-23T15:33:25.093Z,0.70
2022-11-23T15:36:30.026Z,0.82
2022-11-23T15:39:34.914Z,0.70
2022-11-23T15:42:38.341Z,1.00
2022-11-23T15:45:59.976Z,1.45
2022-11-23T15:49:04.416Z,0.70
2022-11-23T15:52:07.314Z,0.60
2022-11-23T15:55:15.187Z,0.82
2022-11-23T15:58:19.033Z,1.10
2022-11-23T16:01:22.369Z,0.97
2022-11-23T16:04:28.126Z,1.42
2022-11-23T16:07:31.068Z,1.60
2022-11-23T16:10:35.715Z,1.13
2022-11-23T16:13:39.956Z,0.87
2022-11-23T16:16:46.153Z,1.07
2022-11-23T16:19:50.267Z,1.20
2022-11-23T16:22:53.803Z,2.77
2022-11-23T16:25:59.413Z,2.88
2022-11-23T16:29:02.398Z,2.80
2022-11-23T16:32:07.242Z,3.65
2022-11-23T16:35:18.592Z,2.43
2022-11-23T16:38:21.871Z,2.40
2022-11-23T16:41:26.015Z,1.00
2022-11-23T16:44:30.933Z,2.83
2022-11-23T16:47:34.173Z,2.47
2022-11-23T16:50:40.598Z,3.47
2022-11-23T16:54:11.883Z,3.20
2022-11-23T16:57:08.531Z,3.40
2022-11-23T17:00:17.341Z,2.77
2022-11-23T17:03:21.268Z,2.13
2022-11-23T17:06:23.929Z,2.23
2022-11-23T17:09:26.534Z,1.87
2022-11-23T17:12:30.918Z,2.97
2022-11-23T17:15:34.516Z,3.40
2022-11-23T17:18:37.124Z,1.40
2022-11-23T17:21:39.855Z,1.50
2022-11-23T17:24:42.585Z,1.20
2022-11-23T17:27:47.325Z,1.47
2022-11-23T17:30:50.156Z,1.17
2022-11-23T17:33:52.792Z,1.00
2022-11-23T17:36:55.360Z,1.20
2022-11-23T17:39:57.972Z,0.73
2022-11-23T17:43:02.164Z,1.77
2022-11-23T17:46:05.156Z,1.00
2022-11-23T17:49:11.284Z,1.17
2022-11-23T17:52:13.948Z,0.90
2022-11-23T17:55:17.261Z,1.63
2022-11-23T17:58:21.281Z,1.50
2022-11-23T18:01:24.891Z,1.30
2022-11-23T18:07:30.459Z,1.20
2022-11-23T18:10:33.177Z,2.08
2022-11-23T18:13:37.891Z,3.90
2022-11-23T18:16:40.850Z,4.53
2022-11-23T18:19:43.549Z,1.98
2022-11-23T18:22:46.200Z,3.53
2022-11-23T18:25:59.459Z,2.50
2022-11-23T18:29:04.269Z,2.00
2022-11-23T18:32:08.330Z,1.87
2022-11-23T18:35:11.185Z,1.63
2022-11-23T18:38:13.888Z,1.60
2022-11-23T18:41:17.921Z,2.10
2022-11-23T18:44:21.801Z,1.70
2022-11-23T18:47:25.066Z,1.90
2022-11-23T18:50:27.709Z,1.70
2022-11-23T18:53:30.416Z,1.67
2022-11-23T18:56:33.172Z,1.53
2022-11-23T19:03:02.150Z,2.23
2022-11-23T19:06:05.746Z,2.60
2022-11-23T19:09:08.428Z,2.20
2022-11-23T19:12:11.086Z,1.70
2022-11-23T19:15:15.125Z,2.13
2022-11-23T19:18:17.851Z,2.70
2022-11-23T19:21:22.397Z,2.00
2022-11-23T19:24:24.996Z,1.80
2022-11-23T19:27:27.886Z,1.90
2022-11-23T19:30:31.907Z,2.20
2022-11-23T19:33:34.998Z,2.50
2022-11-23T19:36:37.603Z,2.45
2022-11-23T19:39:40.193Z,1.30
2022-11-23T19:42:43.524Z,1.97
2022-11-23T19:45:54.660Z,2.03
2022-11-23T19:48:58.173Z,1.93
2022-11-23T19:52:01.806Z,1.80
2022-11-23T19:55:05.874Z,2.03
2022-11-23T19:58:08.634Z,1.60
2022-11-23T20:01:14.884Z,2.60
2022-11-23T20:04:17.671Z,1.67
2022-11-23T20:07:20.688Z,1.73
2022-11-23T20:10:23.435Z,1.33
2022-11-23T20:13:26.780Z,1.57
2022-11-23T20:16:32.791Z,1.60
2022-11-23T20:19:35.743Z,1.37
2022-11-23T20:22:38.730Z,1.70
2022-11-23T20:25:42.259Z,1.92
2022-11-23T20:28:45.103Z,1.67
2022-11-23T20:31:51.397Z,1.95
2022-11-23T20:34:54.110Z,2.10
2022-11-23T20:37:57.173Z,1.37
2022-11-23T20:40:59.839Z,1.65
2022-11-23T20:44:04.151Z,2.00
2022-11-23T20:47:08.216Z,1.77
2022-11-23T20:50:11.227Z,1.60
2022-11-23T20:53:13.902Z,2.03
2022-11-23T20:56:17.247Z,1.10
2022-11-23T20:59:20.775Z,1.00
2022-11-23T21:02:24.839Z,0.98
2022-11-23T21:05:29.223Z,1.30
2022-11-23T21:08:34.798Z,1.13
2022-11-23T21:11:55.888Z,2.07
2022-11-23T21:14:58.851Z,2.37
2022-11-23T21:18:03.097Z,1.98
2022-11-23T21:21:05.991Z,2.10
2022-11-23T21:24:09.127Z,1.65
2022-11-23T21:27:13.448Z,1.73
2022-11-23T21:30:16.276Z,1.60
2022-11-23T21:33:20.315Z,1.27
2022-11-23T21:36:23.346Z,2.43
2022-11-23T21:39:25.995Z,1.80
2022-11-23T21:42:28.691Z,1.37
2022-11-23T21:45:31.340Z,3.00
2022-11-23T21:48:35.711Z,2.33
2022-11-23T21:51:39.197Z,1.93
2022-11-23T21:54:47.282Z,1.52
2022-11-23T21:57:51.668Z,1.83
2022-11-23T22:00:54.341Z,1.83
2022-11-23T22:03:59.729Z,2.37
2022-11-23T22:07:02.333Z,2.17
2022-11-23T22:10:05.164Z,1.77
2022-11-23T22:13:07.731Z,2.15
2022-11-23T22:16:15.472Z,1.60
2022-11-23T22:19:19.522Z,2.53
2022-11-23T22:22:22.137Z,2.30
2022-11-23T22:25:24.719Z,2.73
2022-11-23T22:28:31.923Z,2.40
2022-11-23T22:31:35.805Z,2.23
2022-11-23T22:34:40.395Z,2.73
2022-11-23T22:37:43.020Z,2.03
2022-11-23T22:40:46.802Z,2.37
2022-11-23T22:43:49.417Z,2.13
2022-11-23T22:46:52.031Z,1.63
2022-11-23T22:49:56.000Z,2.30
2022-11-23T22:52:59.953Z,2.03
2022-11-23T22:56:03.234Z,3.15
2022-11-23T22:59:05.971Z,2.90
2022-11-23T23:02:08.646Z,2.90
2022-11-23T23:05:12.914Z,2.97
2022-11-23T23:08:15.519Z,2.00
2022-11-23T23:11:18.194Z,3.70
2022-11-23T23:14:21.028Z,2.97
2022-11-23T23:17:24.081Z,3.20
2022-11-23T23:20:27.996Z,2.13
2022-11-23T23:23:31.033Z,2.83
2022-11-23T23:26:33.685Z,2.92
2022-11-23T23:29:36.276Z,3.17
2022-11-23T23:32:38.927Z,2.80
2022-11-23T23:35:42.855Z,3.20
2022-11-23T23:38:45.485Z,2.70
2022-11-23T23:41:48.050Z,2.60
2022-11-23T23:44:50.665Z,2.00
2022-11-23T23:47:53.353Z,2.30
2022-11-23T23:50:57.379Z,2.50
2022-11-23T23:54:00.013Z,2.70
2022-11-23T23:57:02.753Z,2.03
